Aviation Digital Data Service (ADDS)

Output produced by METARs form (1526 UTC 20 March 2019)
found at http://www.aviationweather.gov/metar/data/
 
Forecast for: VTPP (PHITSANULOK , TH)
Text: TAF VTPP 201100Z 2012/2112 23005KT 7000 FEW030
Forecast period: 1200 to 2100 UTC 20 March 2019
Forecast type: FROM: standard forecast or significant change
Winds: from the SW (230 degrees) at 6 MPH (5 knots; 2.6 m/s)
Visibility: 4 miles (7 km)
Ceiling: at least 12,000 feet AGL
Clouds: few clouds at 3000 feet AGL
Weather: no significant weather forecast for this period
Text: BECMG 2021/2023 5000 BR
Forecast period: 2100 UTC 20 March 2019 to 0100 UTC 21 March 2019
Forecast type: BECOMING: Conditions expected to become as follows by 2300 UTC 20 March 2019
Winds: from the SW (230 degrees) at 6 MPH (5 knots; 2.6 m/s)
Visibility: 3 miles (5 km)
Ceiling: at least 12,000 feet AGL
Clouds: few clouds at 3000 feet AGL
Weather: BR  (mist)
Text: BECMG 2101/2103 7000 NSW
Forecast period: 0100 to 1200 UTC 21 March 2019
Forecast type: BECOMING: Conditions expected to become as follows by 0300 UTC 21 March 2019
Winds: from the SW (230 degrees) at 6 MPH (5 knots; 2.6 m/s)
Visibility: 4 miles (7 km)
Ceiling: at least 12,000 feet AGL
Clouds: few clouds at 3000 feet AGL
Weather: NSW  (no significant weather)